Orbital elements of FENGYUN 1C DEB
| Launched | 9 May 1999 |
| Flight ended | – |
| Launch site | Taiyuan Space Center, PRC |
| Owner | People's Republic of China |
| NORAD ID | 29828 |
| Date fetched |
Epoch osculation |
Inc. [°] |
Ecc. | RA asc node [hr] |
Arg Peri. [°] |
Mean anom [°] |
Mean motion [rev/day] |
Abs. mag |
| Date fetched |
Epoch osculation |
Inc. [°] |
Ecc. | RA asc node [hr] |
Arg Peri. [°] |
Mean anom [°] |
Mean motion [rev/day] |
Abs. mag |
| 2026 May 05 17:57 | 2026 May 05 09:16:49 | 98.7526 | 0.00629 | 11.4502 | 111.3339 | 270.5146 | 14.08563 | – |
| 2026 May 04 17:57 | 2026 Apr 30 14:00:12 | 98.7530 | 0.00630 | 11.1393 | 124.5106 | 270.5146 | 14.08563 | – |
| 2026 May 03 17:57 | 2026 Apr 30 14:00:12 | 98.7530 | 0.00630 | 11.1393 | 124.5106 | 270.5146 | 14.08563 | – |
| 2026 May 02 17:57 | 2026 Apr 30 14:00:12 | 98.7530 | 0.00630 | 11.1393 | 124.5106 | 270.5146 | 14.08563 | – |
| 2026 May 01 17:56 | 2026 Apr 30 14:00:12 | 98.7530 | 0.00630 | 11.1393 | 124.5106 | 270.5146 | 14.08563 | – |
| 2026 Apr 30 17:56 | 2026 Apr 30 14:00:12 | 98.7530 | 0.00630 | 11.1393 | 124.5106 | 270.5146 | 14.08563 | – |
| 2026 Apr 29 17:57 | 2026 Apr 24 09:01:28 | 98.7537 | 0.00629 | 10.7375 | 141.5652 | 270.5146 | 14.08563 | – |
| 2026 Apr 28 17:56 | 2026 Apr 24 09:01:28 | 98.7537 | 0.00629 | 10.7375 | 141.5652 | 270.5146 | 14.08563 | – |
| 2026 Apr 27 17:58 | 2026 Apr 24 09:01:28 | 98.7537 | 0.00629 | 10.7375 | 141.5652 | 270.5146 | 14.08563 | – |
| 2026 Apr 26 17:58 | 2026 Apr 24 09:01:28 | 98.7537 | 0.00629 | 10.7375 | 141.5652 | 270.5146 | 14.08563 | – |
| 2026 Apr 25 17:58 | 2026 Apr 24 09:01:28 | 98.7537 | 0.00629 | 10.7375 | 141.5652 | 270.5146 | 14.08563 | – |
| 2026 Apr 24 17:59 | 2026 Apr 24 09:01:28 | 98.7537 | 0.00629 | 10.7375 | 141.5652 | 270.5146 | 14.08563 | – |
| 2026 Apr 23 17:57 | 2026 Apr 19 09:39:51 | 98.7546 | 0.00627 | 10.4156 | 155.2334 | 270.5146 | 14.08563 | – |
| 2026 Apr 22 17:57 | 2026 Apr 19 09:39:51 | 98.7546 | 0.00627 | 10.4156 | 155.2334 | 270.5146 | 14.08563 | – |
| 2026 Apr 21 17:57 | 2026 Apr 19 09:39:51 | 98.7546 | 0.00627 | 10.4156 | 155.2334 | 270.5146 | 14.08563 | – |
| 2026 Apr 20 17:57 | 2026 Apr 19 09:39:51 | 98.7546 | 0.00627 | 10.4156 | 155.2334 | 270.5146 | 14.08563 | – |
| 2026 Apr 19 17:58 | 2026 Apr 19 09:39:51 | 98.7546 | 0.00627 | 10.4156 | 155.2334 | 270.5146 | 14.08563 | – |
| 2026 Apr 18 17:56 | 2026 Apr 13 01:59:42 | 98.7549 | 0.00623 | 10.0065 | 172.6878 | 270.5146 | 14.08563 | – |
| 2026 Apr 16 17:57 | 2026 Apr 13 01:59:42 | 98.7549 | 0.00623 | 10.0065 | 172.6878 | 270.5146 | 14.08563 | – |
| 2026 Apr 14 17:57 | 2026 Apr 13 01:59:42 | 98.7549 | 0.00623 | 10.0065 | 172.6878 | 270.5146 | 14.08563 | – |
| 2026 Apr 13 17:57 | 2026 Apr 13 01:59:42 | 98.7549 | 0.00623 | 10.0065 | 172.6878 | 270.5146 | 14.08563 | – |
| 2026 Apr 12 17:57 | 2026 Apr 08 09:25:33 | 98.7555 | 0.00620 | 9.7029 | 185.6419 | 270.5146 | 14.08563 | – |
| 2026 Apr 11 17:57 | 2026 Apr 08 09:25:33 | 98.7555 | 0.00620 | 9.7029 | 185.6419 | 270.5146 | 14.08563 | – |
| 2026 Apr 10 17:58 | 2026 Apr 08 09:25:33 | 98.7555 | 0.00620 | 9.7029 | 185.6419 | 270.5146 | 14.08563 | – |
| 2026 Apr 09 18:01 | 2026 Apr 08 09:25:33 | 98.7555 | 0.00620 | 9.7029 | 185.6419 | 270.5146 | 14.08563 | – |
| 2026 Apr 08 17:57 | 2026 Apr 08 09:25:33 | 98.7555 | 0.00620 | 9.7029 | 185.6419 | 270.5146 | 14.08563 | – |